Time;durP1;ratioP1;P1;durP2;ratioP2;P2;SDS_P1;SDS_P2;PMS_P1;PMS_P2;Temp;Humidity;BMP_temperature;BMP_pressure;BME280_temperature;BME280_humidity;BME280_pressure;Samples;Min_cycle;Max_cycle;Signal;HPM_P1;HPM_P2
2022/03/28 00:00:07;;;;;;;;;;;;;;;3.78;100.00;96646.50;1039875;28;20361;-69
2022/03/28 00:00:39;;;;;;;;;;;;;;;3.77;100.00;96648.31;1043611;28;19920;-69
2022/03/28 00:01:09;;;;;;;;;;;;;;;3.72;100.00;96642.09;1040110;28;19924;-69
2022/03/28 00:01:40;;;;;;;;;;;;;;;3.77;100.00;96647.50;1043519;28;19966;-69
2022/03/28 00:02:11;;;;;;;;;;;;;;;3.73;100.00;96641.13;1044038;28;19917;-70
2022/03/28 00:02:44;;;;;;;;;;;;;;;3.72;100.00;96642.09;1044020;28;19956;-68
2022/03/28 00:03:14;;;;;;;;;;;;;;;3.70;100.00;96644.09;1043875;28;20003;-68
2022/03/28 00:03:44;;;;;;;;;;;;;;;3.72;100.00;96642.09;1047934;28;19920;-68
2022/03/28 00:04:15;;;;;;;;;;;;;;;3.75;100.00;96645.09;1042930;28;19974;-70
2022/03/28 00:04:45;;;;;;;;;;;;;;;3.80;100.00;96639.31;1035635;28;19976;-69
2022/03/28 00:05:18;;;;;;;;;;;;;;;3.75;100.00;96644.28;1036240;28;20291;-70
2022/03/28 00:05:48;;;;;;;;;;;;;;;3.72;100.00;96652.47;1039932;28;19995;-68
2022/03/28 00:06:19;;;;;;;;;;;;;;;3.66;100.00;96648.88;1039244;28;19917;-68
2022/03/28 00:06:50;;;;;;;;;;;;;;;3.65;100.00;96646.47;1041864;28;19932;-71
2022/03/28 00:07:21;;;;;;;;;;;;;;;3.62;100.00;96642.50;1035280;28;20693;-69
2022/03/28 00:07:51;;;;;;;;;;;;;;;3.64;100.00;96644.88;1027650;28;19973;-70
2022/03/28 00:08:21;;;;;;;;;;;;;;;3.62;100.00;96646.84;1031662;28;19937;-70
2022/03/28 00:08:52;;;;;;;;;;;;;;;3.57;100.00;96644.06;1035595;28;19925;-69
2022/03/28 00:09:22;;;;;;;;;;;;;;;3.56;100.00;96652.84;1035558;28;19945;-69
2022/03/28 00:09:52;;;;;;;;;;;;;;;3.59;100.00;96637.69;1035393;28;19921;-69
2022/03/28 00:10:23;;;;;;;;;;;;;;;3.61;100.00;96645.25;1035473;28;19924;-67
2022/03/28 00:10:56;;;;;;;;;;;;;;;3.55;100.00;96646.84;1035775;28;19921;-68
2022/03/28 00:11:27;;;;;;;;;;;;;;;3.51;100.00;96643.84;1038392;28;19928;-68
2022/03/28 00:11:57;;;;;;;;;;;;;;;3.51;100.00;96649.03;1044208;28;19928;-69
2022/03/28 00:12:27;;;;;;;;;;;;;;;3.49;100.00;96651.03;1047945;28;19966;-69
2022/03/28 00:12:58;;;;;;;;;;;;;;;3.47;100.00;96645.22;1043757;28;19925;-70
2022/03/28 00:13:28;;;;;;;;;;;;;;;3.49;100.00;96648.44;1043562;28;19921;-70
2022/03/28 00:13:58;;;;;;;;;;;;;;;3.47;100.00;96642.63;1038762;28;20148;-68
2022/03/28 00:14:28;;;;;;;;;;;;;;;3.51;100.00;96651.63;1035347;28;19924;-70
2022/03/28 00:14:59;;;;;;;;;;;;;;;3.52;100.00;96650.66;1039687;28;19921;-69
2022/03/28 00:15:29;;;;;;;;;;;;;;;3.51;100.00;96646.44;1039307;28;19931;-69
2022/03/28 00:15:59;;;;;;;;;;;;;;;3.48;100.00;96646.81;1043732;28;19979;-70
2022/03/28 00:16:30;;;;;;;;;;;;;;;3.45;100.00;96639.41;1048181;28;19920;-71
2022/03/28 00:17:00;;;;;;;;;;;;;;;3.40;100.00;96643.63;1047782;28;19920;-69
2022/03/28 00:17:32;;;;;;;;;;;;;;;3.41;100.00;96640.81;1047860;28;19917;-69
2022/03/28 00:18:02;;;;;;;;;;;;;;;3.42;100.00;96642.44;1047875;28;19923;-68
2022/03/28 00:18:33;;;;;;;;;;;;;;;3.18;100.00;96614.41;1043549;28;19928;-69
2022/03/28 00:19:03;;;;;;;;;;;;;;;3.43;100.00;96649.22;1042877;28;19921;-69
2022/03/28 00:19:33;;;;;;;;;;;;;;;3.40;100.00;96646.22;1043547;28;20373;-69
2022/03/28 00:20:05;;;;;;;;;;;;;;;3.41;100.00;96640.03;1039448;28;19916;-69
2022/03/28 00:20:35;;;;;;;;;;;;;;;3.39;100.00;96647.22;1043975;28;19909;-69
2022/03/28 00:21:06;;;;;;;;;;;;;;;3.36;100.00;96643.22;1047456;28;19913;-68
2022/03/28 00:21:36;;;;;;;;;;;;;;;3.37;100.00;96644.00;1044061;28;19917;-70
2022/03/28 00:22:06;;;;;;;;;;;;;;;3.35;100.00;96646.78;1043615;28;19975;-69
2022/03/28 00:22:37;;;;;;;;;;;;;;;3.37;100.00;96638.81;1043535;28;20513;-70
2022/03/28 00:23:07;;;;;;;;;;;;;;;3.34;100.00;96640.00;1039662;28;20000;-70
2022/03/28 00:23:38;;;;;;;;;;;;;;;3.30;100.00;96634.41;1043820;28;20043;-69
2022/03/28 00:24:08;;;;;;;;;;;;;;;3.27;100.00;96641.78;1041899;28;19920;-71
2022/03/28 00:24:39;;;;;;;;;;;;;;;3.22;100.00;96633.75;1039895;28;19960;-69
2022/03/28 00:25:10;;;;;;;;;;;;;;;3.18;100.00;96632.53;1043679;28;20014;-68
2022/03/28 00:25:42;;;;;;;;;;;;;;;3.13;100.00;96635.72;1044102;28;19921;-69
2022/03/28 00:26:12;;;;;;;;;;;;;;;3.12;100.00;96634.13;1043595;28;19947;-70
2022/03/28 00:26:42;;;;;;;;;;;;;;;3.07;100.00;96629.50;1039658;28;19917;-69
2022/03/28 00:27:13;;;;;;;;;;;;;;;3.04;100.00;96635.09;1035714;28;20672;-69
2022/03/28 00:27:43;;;;;;;;;;;;;;;3.03;100.00;96632.69;1039979;28;19917;-67
2022/03/28 00:28:14;;;;;;;;;;;;;;;3.06;100.00;96632.31;1039629;28;20003;-70
2022/03/28 00:28:45;;;;;;;;;;;;;;;3.04;100.00;96635.09;1039863;28;20660;-69
2022/03/28 00:29:15;;;;;;;;;;;;;;;3.01;100.00;96634.66;1035210;28;19924;-68
2022/03/28 00:29:45;;;;;;;;;;;;;;;2.99;100.00;96636.66;1035794;28;20567;-68
2022/03/28 00:30:16;;;;;;;;;;;;;;;2.96;100.00;96631.88;1035406;28;19913;-71
2022/03/28 00:30:46;;;;;;;;;;;;;;;2.93;100.00;96633.03;1031607;28;19914;-68
2022/03/28 00:31:16;;;;;;;;;;;;;;;2.91;100.00;96629.84;1043877;28;19921;-70
2022/03/28 00:31:47;;;;;;;;;;;;;;;2.92;100.00;96631.44;1039544;28;19920;-68
2022/03/28 00:32:17;;;;;;;;;;;;;;;2.92;100.00;96633.22;1047809;28;19917;-69
2022/03/28 00:32:48;;;;;;;;;;;;;;;2.88;100.00;96638.00;1035588;28;19917;-71
2022/03/28 00:33:18;;;;;;;;;;;;;;;2.85;100.00;96635.81;1035611;28;19922;-69
2022/03/28 00:33:48;;;;;;;;;;;;;;;2.84;100.00;96631.59;1035064;28;19926;-70
2022/03/28 00:34:23;;;;;;;;;;;;;;;2.80;100.00;96635.56;1030465;28;19921;-70
2022/03/28 00:34:55;;;;;;;;;;;;;;;2.78;100.00;96634.94;1035614;28;20643;-70
2022/03/28 00:35:25;;;;;;;;;;;;;;;2.57;100.00;96608.13;1028818;28;19914;-70
2022/03/28 00:35:56;;;;;;;;;;;;;;;2.79;100.00;96637.38;1027477;28;20029;-71
2022/03/28 00:36:26;;;;;;;;;;;;;;;2.79;100.00;96634.78;1028447;28;20012;-69
2022/03/28 00:36:57;;;;;;;;;;;;;;;2.77;100.00;96635.94;1032694;28;19910;-70
2022/03/28 00:37:27;;;;;;;;;;;;;;;2.80;100.00;96640.75;1040248;28;19921;-70
2022/03/28 00:38:00;;;;;;;;;;;;;;;2.87;100.00;96638.19;1044173;28;19928;-69
2022/03/28 00:38:30;;;;;;;;;;;;;;;2.83;100.00;96637.78;1039863;28;19969;-69
2022/03/28 00:39:00;;;;;;;;;;;;;;;2.58;100.00;96604.56;1036070;28;19968;-69
2022/03/28 00:39:31;;;;;;;;;;;;;;;2.77;100.00;96636.75;1032946;28;19917;-71
2022/03/28 00:40:01;;;;;;;;;;;;;;;2.77;100.00;96634.16;1035687;28;19917;-69
2022/03/28 00:40:34;;;;;;;;;;;;;;;2.78;100.00;96637.53;1027444;28;20419;-70
2022/03/28 00:41:04;;;;;;;;;;;;;;;2.78;100.00;96632.34;1031827;28;19921;-70
2022/03/28 00:41:35;;;;;;;;;;;;;;;2.76;100.00;96631.75;1039208;28;19927;-69
2022/03/28 00:42:05;;;;;;;;;;;;;;;2.75;100.00;96630.13;1040177;28;19943;-70
2022/03/28 00:42:38;;;;;;;;;;;;;;;2.74;100.00;96633.72;1043627;28;19921;-70
2022/03/28 00:43:09;;;;;;;;;;;;;;;2.76;100.00;96631.75;1042923;28;19921;-71
2022/03/28 00:43:43;;;;;;;;;;;;;;;2.74;100.00;96631.13;1039975;28;19956;-70
2022/03/28 00:44:13;;;;;;;;;;;;;;;2.77;100.00;96630.75;1038765;28;19924;-69
2022/03/28 00:44:46;;;;;;;;;;;;;;;2.75;100.00;96630.13;1040553;28;19987;-68
2022/03/28 00:45:18;;;;;;;;;;;;;;;2.71;100.00;96624.53;1044656;28;20449;-70
2022/03/28 00:45:48;;;;;;;;;;;;;;;2.68;100.00;96629.31;1039558;28;19957;-68
2022/03/28 00:46:19;;;;;;;;;;;;;;;2.66;100.00;96626.91;1035560;28;20341;-69
2022/03/28 00:46:49;;;;;;;;;;;;;;;2.71;100.00;96626.34;1035323;28;19925;-70
2022/03/28 00:47:19;;;;;;;;;;;;;;;2.73;100.00;96627.75;1031370;28;19976;-69
2022/03/28 00:47:50;;;;;;;;;;;;;;;2.82;100.00;96625.81;1039938;28;19990;-68
2022/03/28 00:48:26;;;;;;;;;;;;;;;2.88;100.00;96622.44;1043563;28;20007;-69
2022/03/28 00:48:56;;;;;;;;;;;;;;;2.84;100.00;96619.44;1037081;28;19968;-70
2022/03/28 00:49:26;;;;;;;;;;;;;;;2.83;100.00;96624.81;1043818;28;19955;-69
2022/03/28 00:49:57;;;;;;;;;;;;;;;2.81;100.00;96621.59;1039232;28;20637;-69
2022/03/28 00:50:29;;;;;;;;;;;;;;;2.82;100.00;96623.22;1035981;28;19918;-71
2022/03/28 00:51:01;;;;;;;;;;;;;;;2.85;100.00;96617.66;1039511;28;19958;-69
2022/03/28 00:51:31;;;;;;;;;;;;;;;2.92;100.00;96615.06;1035405;28;20393;-69
2022/03/28 00:52:02;;;;;;;;;;;;;;;2.84;100.00;96616.03;1031706;28;19918;-69
2022/03/28 00:52:32;;;;;;;;;;;;;;;2.80;100.00;96618.22;1027275;28;19914;-70
2022/03/28 00:53:05;;;;;;;;;;;;;;;2.86;100.00;96621.06;1027744;28;20376;-70
2022/03/28 00:53:36;;;;;;;;;;;;;;;2.87;100.00;96620.84;1032161;28;19917;-70
2022/03/28 00:54:06;;;;;;;;;;;;;;;2.83;100.00;96617.03;1037688;28;19951;-70
2022/03/28 00:54:36;;;;;;;;;;;;;;;2.80;100.00;96620.81;1048004;28;19962;-70
2022/03/28 00:55:07;;;;;;;;;;;;;;;2.78;100.00;96620.22;1039145;28;19939;-69
2022/03/28 00:55:37;;;;;;;;;;;;;;;2.81;100.00;96614.63;1035555;28;20291;-71
2022/03/28 00:56:08;;;;;;;;;;;;;;;2.81;100.00;96621.59;1039781;28;19913;-69
2022/03/28 00:56:42;;;;;;;;;;;;;;;2.81;100.00;96613.84;1030991;28;19918;-69
2022/03/28 00:57:13;;;;;;;;;;;;;;;2.76;100.00;96621.41;1031972;28;20355;-70
2022/03/28 00:57:43;;;;;;;;;;;;;;;2.76;100.00;96626.59;1031330;28;19914;-70
2022/03/28 00:58:13;;;;;;;;;;;;;;;2.75;100.00;96619.78;1032420;28;19921;-70
2022/03/28 00:58:44;;;;;;;;;;;;;;;2.69;100.00;96625.75;1039750;28;20135;-70
2022/03/28 00:59:15;;;;;;;;;;;;;;;2.69;100.00;96620.56;1035255;28;19914;-69
2022/03/28 00:59:45;;;;;;;;;;;;;;;2.69;100.00;96625.75;1031290;28;19914;-72
2022/03/28 01:00:16;;;;;;;;;;;;;;;2.67;100.00;96625.13;1031485;28;19953;-69
2022/03/28 01:00:46;;;;;;;;;;;;;;;2.68;100.00;96624.13;1035449;28;19913;-69
2022/03/28 01:01:17;;;;;;;;;;;;;;;2.67;100.00;96622.53;1031591;28;19926;-69
2022/03/28 01:01:51;;;;;;;;;;;;;;;2.71;100.00;96623.75;1039392;28;19917;-70
2022/03/28 01:02:21;;;;;;;;;;;;;;;2.70;100.00;96622.16;1038993;28;19944;-69
2022/03/28 01:02:51;;;;;;;;;;;;;;;2.69;100.00;96620.56;1027880;28;20002;-71
2022/03/28 01:03:22;;;;;;;;;;;;;;;2.67;100.00;96623.31;1035036;28;19929;-70
2022/03/28 01:03:52;;;;;;;;;;;;;;;2.67;100.00;96622.53;1043233;28;20011;-70
2022/03/28 01:04:23;;;;;;;;;;;;;;;2.68;100.00;96622.31;1039328;28;19921;-71
2022/03/28 01:04:53;;;;;;;;;;;;;;;2.66;100.00;96623.53;1043445;28;19927;-69
2022/03/28 01:05:24;;;;;;;;;;;;;;;2.67;100.00;96625.13;1043776;28;20009;-69
2022/03/28 01:05:54;;;;;;;;;;;;;;;2.63;100.00;96621.31;1040945;28;19920;-69
2022/03/28 01:06:27;;;;;;;;;;;;;;;2.60;100.00;96623.28;1039552;28;19921;-68
2022/03/28 01:06:58;;;;;;;;;;;;;;;2.57;100.00;96623.66;1036365;28;19924;-71
2022/03/28 01:07:28;;;;;;;;;;;;;;;2.56;100.00;96626.47;1035388;28;19956;-70
2022/03/28 01:08:00;;;;;;;;;;;;;;;2.54;100.00;96615.47;1035809;28;19921;-69
2022/03/28 01:08:31;;;;;;;;;;;;;;;2.56;100.00;96622.06;1037256;28;19971;-69
2022/03/28 01:09:01;;;;;;;;;;;;;;;2.53;100.00;96616.47;1035398;28;19917;-71
2022/03/28 01:09:31;;;;;;;;;;;;;;;2.56;100.00;96619.47;1035650;28;20024;-68
2022/03/28 01:10:02;;;;;;;;;;;;;;;2.54;100.00;96623.25;1031802;28;19925;-69
2022/03/28 01:10:32;;;;;;;;;;;;;;;2.55;100.00;96620.47;1031327;28;19918;-69
2022/03/28 01:11:04;;;;;;;;;;;;;;;2.52;100.00;96620.84;1027668;28;19936;-69
2022/03/28 01:11:34;;;;;;;;;;;;;;;2.48;100.00;96619.66;1026175;28;19918;-68
2022/03/28 01:12:04;;;;;;;;;;;;;;;2.46;100.00;96618.22;1027487;28;19914;-70
2022/03/28 01:12:35;;;;;;;;;;;;;;;2.54;100.00;96618.06;1031580;28;19918;-69
2022/03/28 01:13:05;;;;;;;;;;;;;;;2.54;100.00;96613.69;1031446;28;20564;-68
2022/03/28 01:13:36;;;;;;;;;;;;;;;2.58;100.00;96616.69;1035605;28;19921;-69
2022/03/28 01:14:07;;;;;;;;;;;;;;;2.59;100.00;96619.09;1034633;28;19913;-69
2022/03/28 01:14:37;;;;;;;;;;;;;;;2.60;100.00;96618.09;1035399;28;20185;-72
2022/03/28 01:15:08;;;;;;;;;;;;;;;2.77;100.00;96616.00;1031363;28;19918;-69
2022/03/28 01:15:38;;;;;;;;;;;;;;;2.71;100.00;96614.19;1031544;28;20466;-69
2022/03/28 01:16:09;;;;;;;;;;;;;;;2.76;100.00;96603.25;1039417;28;19977;-70
2022/03/28 01:18:16;;;;;;;;;;;;;;;2.72;100.00;96612.41;1040050;28;20000;-68
2022/03/28 01:18:50;;;;;;;;;;;;;;;2.72;100.00;96609.81;1039170;28;19975;-68
2022/03/28 01:19:20;;;;;;;;;;;;;;;2.71;100.00;96609.00;1031800;28;19941;-70
2022/03/28 01:19:50;;;;;;;;;;;;;;;2.70;100.00;96609.19;1031075;28;19926;-70
2022/03/28 01:20:21;;;;;;;;;;;;;;;2.69;100.00;96605.03;1031784;28;19917;-68
2022/03/28 01:20:57;;;;;;;;;;;;;;;2.76;100.00;96605.84;1035223;28;19925;-70
2022/03/28 01:21:28;;;;;;;;;;;;;;;2.86;100.00;96605.50;1040126;28;20032;-70
2022/03/28 01:21:58;;;;;;;;;;;;;;;2.89;100.00;96605.13;1039613;28;20358;-69
2022/03/28 01:22:29;;;;;;;;;;;;;;;2.83;100.00;96602.28;1039125;28;19917;-69
2022/03/28 01:22:59;;;;;;;;;;;;;;;2.80;100.00;96607.06;1035289;28;19949;-71
2022/03/28 01:23:29;;;;;;;;;;;;;;;2.80;100.00;96599.28;1031444;28;20053;-69
2022/03/28 01:24:00;;;;;;;;;;;;;;;2.79;100.00;96601.09;1030420;28;20343;-67
2022/03/28 01:24:30;;;;;;;;;;;;;;;2.77;100.00;96605.66;1028620;28;19914;-71
2022/03/28 01:25:01;;;;;;;;;;;;;;;2.77;100.00;96602.25;1038309;28;19906;-69
2022/03/28 01:25:31;;;;;;;;;;;;;;;2.83;100.00;96601.50;1042681;28;19913;-71
2022/03/28 01:26:02;;;;;;;;;;;;;;;2.80;100.00;96602.66;1044718;28;19989;-72
2022/03/28 01:26:32;;;;;;;;;;;;;;;2.77;100.00;96597.06;1046273;28;19951;-72
2022/03/28 01:27:06;;;;;;;;;;;;;;;2.81;100.00;96598.28;1047625;28;19905;-71
2022/03/28 01:27:36;;;;;;;;;;;;;;;2.80;100.00;96599.28;1048629;28;19968;-70
2022/03/28 01:28:06;;;;;;;;;;;;;;;2.82;100.00;96597.31;1051850;28;19939;-70
2022/03/28 01:28:37;;;;;;;;;;;;;;;2.91;100.00;96593.53;1050656;28;19909;-70
2022/03/28 01:29:07;;;;;;;;;;;;;;;2.87;100.00;96597.53;1042440;28;20158;-72
2022/03/28 01:29:37;;;;;;;;;;;;;;;3.04;100.00;96595.41;1042398;28;19947;-71
2022/03/28 01:30:08;;;;;;;;;;;;;;;3.02;100.00;96600.78;1043721;28;19913;-70
2022/03/28 01:30:38;;;;;;;;;;;;;;;2.97;100.00;96597.97;1043061;28;19993;-72
2022/03/28 01:31:09;;;;;;;;;;;;;;;3.03;100.00;96592.00;1042096;28;19905;-70
2022/03/28 01:31:39;;;;;;;;;;;;;;;3.05;100.00;96595.22;1043204;28;19917;-70
2022/03/28 01:32:10;;;;;;;;;;;;;;;3.01;100.00;96593.97;1039484;28;19920;-71
2022/03/28 01:32:40;;;;;;;;;;;;;;;3.05;100.00;96595.22;1038903;28;20624;-70
2022/03/28 01:33:10;;;;;;;;;;;;;;;3.00;100.00;96592.41;1039249;28;19909;-71
2022/03/28 01:33:41;;;;;;;;;;;;;;;2.97;100.00;96597.97;1039455;28;20485;-70
2022/03/28 01:34:17;;;;;;;;;;;;;;;2.97;100.00;96595.38;1034647;28;19909;-70
2022/03/28 01:34:48;;;;;;;;;;;;;;;3.06;100.00;96589.03;1035212;28;19982;-70
2022/03/28 01:35:24;;;;;;;;;;;;;;;3.01;100.00;96591.38;1035547;28;19952;-70
2022/03/28 01:35:55;;;;;;;;;;;;;;;3.00;100.00;96586.41;1037078;28;19952;-71
2022/03/28 01:36:25;;;;;;;;;;;;;;;2.98;100.00;96588.38;1040325;28;20494;-71
2022/03/28 01:36:55;;;;;;;;;;;;;;;2.96;100.00;96593.78;1039429;28;19913;-70
2022/03/28 01:37:28;;;;;;;;;;;;;;;3.14;100.00;96582.06;1039303;28;19909;-68
2022/03/28 01:37:59;;;;;;;;;;;;;;;3.15;100.00;96591.44;1044961;28;19913;-70
2022/03/28 01:38:29;;;;;;;;;;;;;;;3.11;100.00;96592.84;1039845;28;19928;-70
2022/03/28 01:39:00;;;;;;;;;;;;;;;3.07;100.00;96592.41;1040696;28;20776;-70
2022/03/28 01:39:31;;;;;;;;;;;;;;;3.02;100.00;96594.81;1040580;28;19920;-70
2022/03/28 01:40:01;;;;;;;;;;;;;;;2.96;100.00;96588.59;1039855;28;20378;-69
2022/03/28 01:40:34;;;;;;;;;;;;;;;2.99;100.00;96592.59;1039256;28;19905;-71
2022/03/28 01:41:04;;;;;;;;;;;;;;;2.94;100.00;96587.97;1035329;28;19949;-70
2022/03/28 01:41:34;;;;;;;;;;;;;;;2.90;100.00;96591.16;1043502;28;19913;-71
2022/03/28 01:42:05;;;;;;;;;;;;;;;2.89;100.00;96590.38;1039546;28;19909;-71
2022/03/28 01:42:35;;;;;;;;;;;;;;;2.85;100.00;96589.16;1039531;28;19913;-69
2022/03/28 01:43:05;;;;;;;;;;;;;;;2.81;100.00;96590.50;1037634;28;19913;-69
2022/03/28 01:43:36;;;;;;;;;;;;;;;2.80;100.00;96591.50;1035266;28;20016;-70
2022/03/28 01:44:07;;;;;;;;;;;;;;;2.80;100.00;96591.50;1034538;28;19918;-69
2022/03/28 01:44:37;;;;;;;;;;;;;;;2.77;100.00;96591.88;1034948;28;19945;-71
2022/03/28 01:45:08;;;;;;;;;;;;;;;2.76;100.00;96591.09;1031290;28;20608;-69
2022/03/28 01:45:38;;;;;;;;;;;;;;;2.83;100.00;96585.94;1043632;28;20022;-69
2022/03/28 01:46:09;;;;;;;;;;;;;;;2.79;100.00;96590.72;1039472;28;19912;-69
2022/03/28 01:46:40;;;;;;;;;;;;;;;2.74;100.00;96587.88;1039531;28;19909;-72
2022/03/28 01:47:10;;;;;;;;;;;;;;;2.70;100.00;96584.09;1039265;28;20416;-70
2022/03/28 01:47:41;;;;;;;;;;;;;;;2.68;100.00;96582.66;1039706;28;19914;-69
2022/03/28 01:48:11;;;;;;;;;;;;;;;2.68;100.00;96591.22;1043327;28;19920;-71
2022/03/28 01:48:41;;;;;;;;;;;;;;;2.67;100.00;96581.88;1047746;28;19933;-69
2022/03/28 01:49:12;;;;;;;;;;;;;;;2.70;100.00;96589.25;1043621;28;19916;-69
2022/03/28 01:49:42;;;;;;;;;;;;;;;2.66;100.00;96588.06;1043320;28;19905;-69
2022/03/28 01:50:13;;;;;;;;;;;;;;;2.68;100.00;96582.66;1043374;28;20010;-70
2022/03/28 01:50:43;;;;;;;;;;;;;;;2.72;100.00;96583.91;1043716;28;19915;-69
2022/03/28 01:51:17;;;;;;;;;;;;;;;2.70;100.00;96586.69;1043357;28;19909;-69
2022/03/28 01:51:47;;;;;;;;;;;;;;;2.78;100.00;96590.88;1043756;28;20405;-70
2022/03/28 01:52:18;;;;;;;;;;;;;;;2.74;100.00;96584.50;1039196;28;19931;-70
2022/03/28 01:52:49;;;;;;;;;;;;;;;2.69;100.00;96587.69;1039206;28;19917;-70
2022/03/28 01:53:19;;;;;;;;;;;;;;;2.69;100.00;96585.09;1044154;28;20393;-69
2022/03/28 01:53:49;;;;;;;;;;;;;;;2.70;100.00;96586.69;1038513;28;19917;-71
2022/03/28 01:54:20;;;;;;;;;;;;;;;2.66;100.00;96579.50;1034162;28;19905;-68
2022/03/28 01:54:50;;;;;;;;;;;;;;;2.65;100.00;96585.63;1035526;28;20342;-67
2022/03/28 01:55:20;;;;;;;;;;;;;;;2.60;100.00;96588.81;1039921;28;19909;-68
2022/03/28 01:55:51;;;;;;;;;;;;;;;2.58;100.00;96588.19;1035586;28;19905;-67
2022/03/28 01:56:21;;;;;;;;;;;;;;;2.56;100.00;96585.81;1035282;28;20432;-68
2022/03/28 01:56:51;;;;;;;;;;;;;;;2.58;100.00;96591.59;1033686;28;19920;-69
2022/03/28 01:57:22;;;;;;;;;;;;;;;2.59;100.00;96582.03;1035924;28;20446;-69
2022/03/28 01:57:53;;;;;;;;;;;;;;;2.55;100.00;96586.81;1031636;28;19910;-69
2022/03/28 01:58:23;;;;;;;;;;;;;;;2.64;100.00;96581.47;1031912;28;19918;-69
2022/03/28 01:58:53;;;;;;;;;;;;;;;2.64;100.00;96582.25;1027994;28;19910;-69
2022/03/28 01:59:23;;;;;;;;;;;;;;;2.64;100.00;96581.47;1031901;28;19910;-71
2022/03/28 01:59:54;;;;;;;;;;;;;;;2.60;100.00;96581.84;1035653;28;19945;-69
2022/03/28 02:00:25;;;;;;;;;;;;;;;2.60;100.00;96581.03;1039976;28;19960;-69
2022/03/28 02:00:55;;;;;;;;;;;;;;;2.66;100.00;96579.50;1048239;28;19908;-70
2022/03/28 02:01:26;;;;;;;;;;;;;;;2.77;100.00;96579.72;1048465;28;19957;-69
2022/03/28 02:01:56;;;;;;;;;;;;;;;2.71;100.00;96583.09;1047847;28;19919;-69
2022/03/28 02:02:27;;;;;;;;;;;;;;;2.69;100.00;96584.28;1044038;28;19978;-69
2022/03/28 02:02:57;;;;;;;;;;;;;;;2.79;100.00;96579.56;1044192;28;19913;-69
2022/03/28 02:03:27;;;;;;;;;;;;;;;2.72;100.00;96578.72;1048088;28;19912;-70
2022/03/28 02:03:58;;;;;;;;;;;;;;;2.70;100.00;96578.09;1047679;28;19955;-71
2022/03/28 02:04:28;;;;;;;;;;;;;;;2.73;100.00;96572.53;1043977;28;20289;-69
2022/03/28 02:04:58;;;;;;;;;;;;;;;2.72;100.00;96576.94;1043742;28;20406;-67
2022/03/28 02:05:28;;;;;;;;;;;;;;;2.70;100.00;96575.50;1036109;28;19913;-68
2022/03/28 02:05:59;;;;;;;;;;;;;;;2.64;100.00;96576.28;1036553;28;19918;-69
2022/03/28 02:06:29;;;;;;;;;;;;;;;2.62;100.00;96573.88;1039987;28;19970;-69
2022/03/28 02:07:00;;;;;;;;;;;;;;;2.60;100.00;96568.88;1039765;28;19921;-69
2022/03/28 02:07:30;;;;;;;;;;;;;;;2.62;100.00;96578.28;1043924;28;19932;-68
2022/03/28 02:08:01;;;;;;;;;;;;;;;2.62;100.00;96575.69;1039808;28;19920;-70
2022/03/28 02:08:32;;;;;;;;;;;;;;;2.63;100.00;96574.69;1040060;28;19932;-69
2022/03/28 02:09:02;;;;;;;;;;;;;;;2.60;100.00;96576.66;1036127;28;19949;-69
2022/03/28 02:09:33;;;;;;;;;;;;;;;2.54;100.00;96580.00;1040118;28;19917;-68
2022/03/28 02:10:03;;;;;;;;;;;;;;;2.51;100.00;96574.41;1037806;28;19917;-69
2022/03/28 02:10:34;;;;;;;;;;;;;;;2.49;100.00;96579.00;1035675;28;19945;-70
2022/03/28 02:11:04;;;;;;;;;;;;;;;2.45;100.00;96586.34;1036115;28;20294;-69
2022/03/28 02:11:34;;;;;;;;;;;;;;;2.47;100.00;96576.56;1035667;28;20302;-69
2022/03/28 02:12:05;;;;;;;;;;;;;;;2.48;100.00;96575.63;1031060;28;19918;-69
2022/03/28 02:12:35;;;;;;;;;;;;;;;2.29;100.00;96543.41;1036210;28;20118;-69
2022/03/28 02:13:06;;;;;;;;;;;;;;;2.43;100.00;96580.53;1039803;28;20000;-70
2022/03/28 02:13:36;;;;;;;;;;;;;;;2.41;100.00;96577.34;1037834;28;20374;-68
2022/03/28 02:14:06;;;;;;;;;;;;;;;2.37;100.00;96576.13;1034891;28;20141;-69
2022/03/28 02:14:37;;;;;;;;;;;;;;;2.34;100.00;96572.13;1035710;28;19914;-68
2022/03/28 02:15:07;;;;;;;;;;;;;;;2.34;100.00;96577.28;1040004;28;19917;-69
2022/03/28 02:15:38;;;;;;;;;;;;;;;2.35;100.00;96575.53;1043381;28;19936;-71
2022/03/28 02:16:08;;;;;;;;;;;;;;;2.28;100.00;96572.91;1039803;28;19917;-70
2022/03/28 02:16:38;;;;;;;;;;;;;;;2.23;100.00;96574.44;1040354;28;19952;-67
2022/03/28 02:17:09;;;;;;;;;;;;;;;2.22;100.00;96576.25;1043792;28;19972;-69
2022/03/28 02:17:39;;;;;;;;;;;;;;;2.21;100.00;96576.41;1044662;28;19913;-69
2022/03/28 02:18:10;;;;;;;;;;;;;;;2.22;100.00;96572.84;1039964;28;19924;-69
2022/03/28 02:18:40;;;;;;;;;;;;;;;2.21;100.00;96576.41;1035410;28;19921;-70
2022/03/28 02:19:10;;;;;;;;;;;;;;;2.21;100.00;96576.41;1035871;28;20462;-68
2022/03/28 02:19:43;;;;;;;;;;;;;;;2.16;100.00;96578.78;1035717;28;19918;-68
2022/03/28 02:20:14;;;;;;;;;;;;;;;2.13;100.00;96575.56;1040594;28;20605;-68
2022/03/28 02:20:44;;;;;;;;;;;;;;;2.08;100.00;96571.97;1042673;28;19966;-69
2022/03/28 02:21:14;;;;;;;;;;;;;;;2.05;100.00;96567.16;1039806;28;19913;-69
2022/03/28 02:21:45;;;;;;;;;;;;;;;2.03;100.00;96580.28;1040537;28;19992;-69
2022/03/28 02:22:15;;;;;;;;;;;;;;;2.04;100.00;96576.69;1043940;28;19920;-69
2022/03/28 02:22:46;;;;;;;;;;;;;;;2.04;100.00;96571.50;1048135;28;19924;-68
2022/03/28 02:23:16;;;;;;;;;;;;;;;2.02;100.00;96568.31;1048195;28;19904;-68
2022/03/28 02:23:47;;;;;;;;;;;;;;;2.00;100.00;96575.47;1048102;28;19917;-68
2022/03/28 02:24:17;;;;;;;;;;;;;;;1.99;100.00;96573.09;1043109;28;19913;-68
2022/03/28 02:24:47;;;;;;;;;;;;;;;1.99;100.00;96573.09;1048311;28;20230;-70
2022/03/28 02:25:18;;;;;;;;;;;;;;;1.97;100.00;96570.66;1039573;28;19944;-69
2022/03/28 02:25:48;;;;;;;;;;;;;;;1.95;100.00;96571.88;1038003;28;20317;-71
2022/03/28 02:26:18;;;;;;;;;;;;;;;1.88;100.00;96569.22;1031901;28;19948;-67
2022/03/28 02:26:49;;;;;;;;;;;;;;;1.85;100.00;96572.97;1027483;28;20431;-69
2022/03/28 02:27:19;;;;;;;;;;;;;;;1.83;100.00;96569.75;1035930;28;19941;-69
2022/03/28 02:27:49;;;;;;;;;;;;;;;1.80;100.00;96574.50;1033488;28;19961;-70
2022/03/28 02:28:19;;;;;;;;;;;;;;;1.82;100.00;96567.38;1031633;28;19917;-69
2022/03/28 02:28:50;;;;;;;;;;;;;;;1.78;100.00;96577.28;1031730;28;19918;-68
2022/03/28 02:29:20;;;;;;;;;;;;;;;1.84;100.00;96567.97;1039634;28;19975;-69
2022/03/28 02:29:50;;;;;;;;;;;;;;;1.81;100.00;96571.75;1035518;28;19960;-68
2022/03/28 02:30:21;;;;;;;;;;;;;;;2.05;100.00;96574.91;1035971;28;19918;-69
2022/03/28 02:30:51;;;;;;;;;;;;;;;2.09;100.00;96569.16;1035740;28;19918;-69
2022/03/28 02:31:21;;;;;;;;;;;;;;;2.07;100.00;96576.31;1039995;28;19913;-69
2022/03/28 02:31:52;;;;;;;;;;;;;;;2.16;100.00;96573.59;1043767;28;19924;-68
2022/03/28 02:32:22;;;;;;;;;;;;;;;2.20;100.00;96572.22;1048089;28;19924;-71
2022/03/28 02:32:52;;;;;;;;;;;;;;;2.34;100.00;96566.94;1043621;28;19940;-69
2022/03/28 02:33:23;;;;;;;;;;;;;;;2.44;100.00;96566.59;1043913;28;19925;-68
2022/03/28 02:33:53;;;;;;;;;;;;;;;2.39;100.00;96565.59;1043204;28;19939;-68
2022/03/28 02:34:23;;;;;;;;;;;;;;;2.36;100.00;96570.16;1042633;28;19924;-69
2022/03/28 02:34:53;;;;;;;;;;;;;;;2.43;100.00;96562.41;1038241;28;20411;-70
2022/03/28 02:35:24;;;;;;;;;;;;;;;2.43;100.00;96559.03;1039923;28;19970;-69
2022/03/28 02:35:54;;;;;;;;;;;;;;;2.45;100.00;96557.03;1039639;28;19927;-69
2022/03/28 02:36:24;;;;;;;;;;;;;;;2.44;100.00;96561.41;1031370;28;20351;-69
2022/03/28 02:36:55;;;;;;;;;;;;;;;2.38;100.00;96561.38;1031723;28;19925;-68
2022/03/28 02:37:25;;;;;;;;;;;;;;;2.42;100.00;96563.41;1031517;28;19922;-69
2022/03/28 02:38:00;;;;;;;;;;;;;;;2.42;100.00;96567.81;1035581;28;19913;-70
2022/03/28 02:38:31;;;;;;;;;;;;;;;2.38;100.00;96564.75;1040777;28;20341;-68
2022/03/28 02:39:01;;;;;;;;;;;;;;;2.53;100.00;96564.66;1044064;28;19916;-69
2022/03/28 02:39:31;;;;;;;;;;;;;;;2.59;100.00;96559.53;1039039;28;20309;-69
2022/03/28 02:40:02;;;;;;;;;;;;;;;2.53;100.00;96559.47;1036297;28;19910;-69
2022/03/28 02:40:32;;;;;;;;;;;;;;;2.63;100.00;96559.94;1043758;28;19999;-69
2022/03/28 02:41:03;;;;;;;;;;;;;;;2.64;100.00;96565.91;1044151;28;20457;-68
2022/03/28 02:41:34;;;;;;;;;;;;;;;2.59;100.00;96558.72;1043773;28;19921;-69